Impacts TAF Board
For situational awareness. Not to be used for flight planning purposes.
IDs:

KMCO - Orlando Intl, FL, US

Issued at 0535 UTC 21 Oct 2018
Updated at 0849 UTC 21 Oct 2018
Potential Impact None Slight Moderate High
Time0753Z 21/09Z 21/10Z 21/11Z 21/12Z 21/13Z 21/14Z 21/15Z 21/16Z 21/17Z 21/18Z 21/19Z 21/20Z 21/21Z>>
Type OBS PRVL PRVL PRVL PRVL PRVL PRVL PRVL PRVL PRVL PRVL PRVL PRVL PRVL
VIS 10 >6 >6 >6 >6 >6 >6 >6 >6 >6 >6 >6 >6 >6
CIG -- -- -- -- -- -- -- -- -- -- -- -- -- --
Cover FEW SKC SKC SKC SKC SKC SCT SCT SCT SCT SCT SCT SCT SCT
FltCat VFR VFR VFR VFR VFR VFR VFR VFR VFR VFR VFR VFR VFR VFR
WX -- -- -- -- -- -- -- -- -- -- -- -- -- --
WDir 290 300 300 300 300 300 20 20 20 20 20 20 20 20
WSpd 6 5 5 5 5 5 12 12 12 12 12 12 12 12
WGst -- -- -- -- -- -- 18 18 18 18 18 18 18 18
Raw TAF
KMCO 210535Z 2106/2212 30005KT P6SM SKC
  FM211400 02012G18KT P6SM FEW040 SCT120
  FM220000 01010KT P6SM FEW120 SCT250
  FM220400 01005KT P6SM SKC


Raw METAR
KMCO 210753Z 29006KT 10SM FEW030 24/22 A2997 RMK AO2 SLP147 T02390222 $
KMCO 210653Z 30007KT 10SM CLR 24/22 A2997 RMK AO2 SLP147 T02440222 $
KMCO 210553Z 29007KT 10SM CLR 24/22 A2999 RMK AO2 SLP152 T02440222 10272 20244 58008 $

METAR Board
Radar Display
Forecast Discussion
For situational awareness. Not to be used for flight planning purposes.